sensor_id;sensor_type;location;lat;lon;timestamp;pressure;altitude;pressure_sealevel;temperature;humidity
51999;BME280;73339;50.924;11.598;2023-11-18T00:02:27;100201.85;;;20.44;36.03
51999;BME280;73339;50.924;11.598;2023-11-18T00:04:57;100202.53;;;20.41;36.08
51999;BME280;73339;50.924;11.598;2023-11-18T00:07:28;100201.58;;;20.43;35.97
51999;BME280;73339;50.924;11.598;2023-11-18T00:09:58;100201.69;;;20.48;35.88
51999;BME280;73339;50.924;11.598;2023-11-18T00:12:29;100203.39;;;20.49;35.85
51999;BME280;73339;50.924;11.598;2023-11-18T00:14:59;100200.66;;;20.60;35.55
51999;BME280;73339;50.924;11.598;2023-11-18T00:17:30;100203.53;;;20.55;35.63
51999;BME280;73339;50.924;11.598;2023-11-18T00:20:00;100201.61;;;20.46;35.86
51999;BME280;73339;50.924;11.598;2023-11-18T00:22:30;100205.08;;;20.55;35.75
51999;BME280;73339;50.924;11.598;2023-11-18T00:25:01;100210.74;;;20.43;35.97
51999;BME280;73339;50.924;11.598;2023-11-18T00:27:31;100211.76;;;20.40;36.08
51999;BME280;73339;50.924;11.598;2023-11-18T00:30:02;100212.50;;;20.38;36.02
51999;BME280;73339;50.924;11.598;2023-11-18T00:32:32;100210.95;;;20.29;36.22
51999;BME280;73339;50.924;11.598;2023-11-18T00:35:03;100213.80;;;20.36;36.16
51999;BME280;73339;50.924;11.598;2023-11-18T00:37:33;100213.09;;;20.30;36.26
51999;BME280;73339;50.924;11.598;2023-11-18T00:40:05;100213.79;;;20.44;35.94
51999;BME280;73339;50.924;11.598;2023-11-18T00:42:34;100216.81;;;20.27;36.30
51999;BME280;73339;50.924;11.598;2023-11-18T00:45:05;100218.86;;;20.39;36.07
51999;BME280;73339;50.924;11.598;2023-11-18T00:47:35;100221.25;;;20.31;36.22
51999;BME280;73339;50.924;11.598;2023-11-18T00:50:06;100222.07;;;20.37;36.11
51999;BME280;73339;50.924;11.598;2023-11-18T00:52:36;100220.87;;;20.32;36.21
51999;BME280;73339;50.924;11.598;2023-11-18T00:55:07;100226.94;;;20.29;36.30
51999;BME280;73339;50.924;11.598;2023-11-18T00:57:36;100230.54;;;20.35;36.14
51999;BME280;73339;50.924;11.598;2023-11-18T01:00:11;100226.81;;;20.22;36.38
51999;BME280;73339;50.924;11.598;2023-11-18T01:02:37;100227.56;;;20.17;36.51
51999;BME280;73339;50.924;11.598;2023-11-18T01:05:08;100226.20;;;20.09;36.70
51999;BME280;73339;50.924;11.598;2023-11-18T01:07:38;100227.91;;;20.05;36.75
51999;BME280;73339;50.924;11.598;2023-11-18T01:10:10;100227.42;;;20.10;36.61
51999;BME280;73339;50.924;11.598;2023-11-18T01:12:39;100230.58;;;20.00;36.85
51999;BME280;73339;50.924;11.598;2023-11-18T01:15:10;100231.81;;;20.03;36.73
51999;BME280;73339;50.924;11.598;2023-11-18T01:17:40;100235.38;;;20.18;36.44
51999;BME280;73339;50.924;11.598;2023-11-18T01:20:11;100234.50;;;20.23;36.32
51999;BME280;73339;50.924;11.598;2023-11-18T01:22:41;100233.02;;;20.12;36.53
51999;BME280;73339;50.924;11.598;2023-11-18T01:25:11;100230.73;;;20.03;36.72
51999;BME280;73339;50.924;11.598;2023-11-18T01:27:42;100235.08;;;20.29;36.17
51999;BME280;73339;50.924;11.598;2023-11-18T01:30:13;100234.15;;;20.06;36.62
51999;BME280;73339;50.924;11.598;2023-11-18T01:32:43;100236.52;;;19.98;36.69
51999;BME280;73339;50.924;11.598;2023-11-18T01:35:13;100240.04;;;20.11;36.47
51999;BME280;73339;50.924;11.598;2023-11-18T01:37:43;100243.20;;;20.20;36.26
51999;BME280;73339;50.924;11.598;2023-11-18T01:40:14;100240.68;;;20.21;36.23
51999;BME280;73339;50.924;11.598;2023-11-18T01:42:44;100241.36;;;20.29;36.04
51999;BME280;73339;50.924;11.598;2023-11-18T01:45:15;100244.63;;;20.18;36.26
51999;BME280;73339;50.924;11.598;2023-11-18T01:47:46;100251.00;;;20.22;36.15
51999;BME280;73339;50.924;11.598;2023-11-18T01:50:16;100255.03;;;20.22;36.13
51999;BME280;73339;50.924;11.598;2023-11-18T01:52:47;100255.52;;;20.16;36.26
51999;BME280;73339;50.924;11.598;2023-11-18T01:55:17;100254.88;;;20.18;36.21
51999;BME280;73339;50.924;11.598;2023-11-18T01:57:47;100253.55;;;20.22;36.13
51999;BME280;73339;50.924;11.598;2023-11-18T02:00:18;100252.19;;;20.08;36.41
51999;BME280;73339;50.924;11.598;2023-11-18T02:02:48;100253.92;;;20.16;36.27
51999;BME280;73339;50.924;11.598;2023-11-18T02:05:18;100253.08;;;20.04;36.43
51999;BME280;73339;50.924;11.598;2023-11-18T02:07:49;100257.59;;;20.27;35.97
51999;BME280;73339;50.924;11.598;2023-11-18T02:10:19;100258.67;;;20.15;36.20
51999;BME280;73339;50.924;11.598;2023-11-18T02:12:57;100258.92;;;20.16;36.17
51999;BME280;73339;50.924;11.598;2023-11-18T02:15:21;100259.45;;;20.23;35.98
51999;BME280;73339;50.924;11.598;2023-11-18T02:17:52;100258.69;;;20.07;36.30
51999;BME280;73339;50.924;11.598;2023-11-18T02:20:21;100255.29;;;20.22;35.99
51999;BME280;73339;50.924;11.598;2023-11-18T02:22:52;100256.74;;;20.15;36.16
51999;BME280;73339;50.924;11.598;2023-11-18T02:25:24;100256.16;;;20.15;36.12
51999;BME280;73339;50.924;11.598;2023-11-18T02:27:52;100257.60;;;20.17;36.08
51999;BME280;73339;50.924;11.598;2023-11-18T02:30:23;100260.52;;;20.20;35.96
51999;BME280;73339;50.924;11.598;2023-11-18T02:32:57;100266.13;;;20.36;35.70
51999;BME280;73339;50.924;11.598;2023-11-18T02:35:28;100262.66;;;20.09;36.12
51999;BME280;73339;50.924;11.598;2023-11-18T02:37:55;100263.92;;;20.17;35.99
51999;BME280;73339;50.924;11.598;2023-11-18T02:40:32;100265.65;;;20.24;35.81
51999;BME280;73339;50.924;11.598;2023-11-18T02:42:57;100272.39;;;20.26;35.75
51999;BME280;73339;50.924;11.598;2023-11-18T02:45:26;100280.02;;;20.19;35.89
51999;BME280;73339;50.924;11.598;2023-11-18T02:47:56;100281.20;;;20.18;35.90
51999;BME280;73339;50.924;11.598;2023-11-18T02:50:27;100279.06;;;20.13;35.99
51999;BME280;73339;50.924;11.598;2023-11-18T02:52:57;100277.38;;;20.17;35.92
51999;BME280;73339;50.924;11.598;2023-11-18T02:55:27;100274.75;;;20.19;35.88
51999;BME280;73339;50.924;11.598;2023-11-18T02:57:58;100275.39;;;20.22;35.82
51999;BME280;73339;50.924;11.598;2023-11-18T03:00:28;100276.06;;;20.13;35.98
51999;BME280;73339;50.924;11.598;2023-11-18T03:02:59;100282.44;;;20.05;36.20
51999;BME280;73339;50.924;11.598;2023-11-18T03:05:30;100280.51;;;20.24;35.79
51999;BME280;73339;50.924;11.598;2023-11-18T03:08:00;100285.36;;;20.09;36.00
51999;BME280;73339;50.924;11.598;2023-11-18T03:10:30;100282.62;;;20.31;35.60
51999;BME280;73339;50.924;11.598;2023-11-18T03:13:01;100286.14;;;20.17;35.85
51999;BME280;73339;50.924;11.598;2023-11-18T03:15:31;100291.69;;;20.17;35.83
51999;BME280;73339;50.924;11.598;2023-11-18T03:18:01;100296.22;;;20.35;35.52
51999;BME280;73339;50.924;11.598;2023-11-18T03:20:33;100298.22;;;20.20;35.81
51999;BME280;73339;50.924;11.598;2023-11-18T03:23:02;100301.16;;;20.26;35.65
51999;BME280;73339;50.924;11.598;2023-11-18T03:25:33;100299.58;;;20.24;35.70
51999;BME280;73339;50.924;11.598;2023-11-18T03:28:03;100308.50;;;20.16;35.84
51999;BME280;73339;50.924;11.598;2023-11-18T03:30:34;100310.47;;;20.10;35.92
51999;BME280;73339;50.924;11.598;2023-11-18T03:33:04;100311.80;;;20.16;35.85
51999;BME280;73339;50.924;11.598;2023-11-18T03:35:34;100317.01;;;20.15;35.89
51999;BME280;73339;50.924;11.598;2023-11-18T03:38:05;100322.06;;;20.26;35.69
51999;BME280;73339;50.924;11.598;2023-11-18T03:40:35;100325.46;;;20.27;35.63
51999;BME280;73339;50.924;11.598;2023-11-18T03:43:06;100324.06;;;20.28;35.58
51999;BME280;73339;50.924;11.598;2023-11-18T03:45:38;100324.03;;;20.15;35.86
51999;BME280;73339;50.924;11.598;2023-11-18T03:48:07;100326.18;;;20.16;35.77
51999;BME280;73339;50.924;11.598;2023-11-18T03:50:37;100325.01;;;20.15;35.84
51999;BME280;73339;50.924;11.598;2023-11-18T03:53:07;100327.54;;;20.17;35.80
51999;BME280;73339;50.924;11.598;2023-11-18T03:55:38;100329.63;;;20.15;35.83
51999;BME280;73339;50.924;11.598;2023-11-18T03:58:09;100331.98;;;20.17;35.78
51999;BME280;73339;50.924;11.598;2023-11-18T04:00:39;100332.39;;;20.21;35.70
51999;BME280;73339;50.924;11.598;2023-11-18T04:03:09;100325.29;;;20.25;35.63
51999;BME280;73339;50.924;11.598;2023-11-18T04:05:40;100322.16;;;20.28;35.58
51999;BME280;73339;50.924;11.598;2023-11-18T04:08:10;100327.39;;;20.19;35.68
51999;BME280;73339;50.924;11.598;2023-11-18T04:10:41;100329.99;;;20.28;35.53
51999;BME280;73339;50.924;11.598;2023-11-18T04:13:11;100327.63;;;20.21;35.71
51999;BME280;73339;50.924;11.598;2023-11-18T04:15:42;100333.04;;;20.21;35.64
51999;BME280;73339;50.924;11.598;2023-11-18T04:18:12;100332.89;;;20.19;35.66
51999;BME280;73339;50.924;11.598;2023-11-18T04:20:43;100330.70;;;20.14;35.80
51999;BME280;73339;50.924;11.598;2023-11-18T04:23:13;100335.47;;;20.21;35.69
51999;BME280;73339;50.924;11.598;2023-11-18T04:25:43;100332.16;;;20.19;35.67
51999;BME280;73339;50.924;11.598;2023-11-18T04:28:14;100327.12;;;20.23;35.59
51999;BME280;73339;50.924;11.598;2023-11-18T04:30:44;100325.84;;;20.13;35.84
51999;BME280;73339;50.924;11.598;2023-11-18T04:33:15;100325.95;;;20.10;35.86
51999;BME280;73339;50.924;11.598;2023-11-18T04:35:46;100326.55;;;20.16;35.70
51999;BME280;73339;50.924;11.598;2023-11-18T04:38:16;100321.98;;;20.10;35.83
51999;BME280;73339;50.924;11.598;2023-11-18T04:40:46;100321.23;;;20.20;35.62
51999;BME280;73339;50.924;11.598;2023-11-18T04:43:17;100320.76;;;20.21;35.64
51999;BME280;73339;50.924;11.598;2023-11-18T04:45:47;100320.00;;;20.13;35.75
51999;BME280;73339;50.924;11.598;2023-11-18T04:48:17;100320.76;;;19.99;36.02
51999;BME280;73339;50.924;11.598;2023-11-18T04:50:48;100318.90;;;20.00;36.02
51999;BME280;73339;50.924;11.598;2023-11-18T04:53:19;100317.89;;;20.22;35.54
51999;BME280;73339;50.924;11.598;2023-11-18T04:55:49;100315.55;;;20.13;35.76
51999;BME280;73339;50.924;11.598;2023-11-18T04:58:20;100316.39;;;20.18;35.67
51999;BME280;73339;50.924;11.598;2023-11-18T05:00:50;100315.27;;;20.10;35.79
51999;BME280;73339;50.924;11.598;2023-11-18T05:03:20;100315.36;;;20.07;35.87
51999;BME280;73339;50.924;11.598;2023-11-18T05:05:51;100315.81;;;20.23;35.53
51999;BME280;73339;50.924;11.598;2023-11-18T05:08:21;100321.24;;;20.17;35.61
51999;BME280;73339;50.924;11.598;2023-11-18T05:10:52;100322.80;;;20.16;35.61
51999;BME280;73339;50.924;11.598;2023-11-18T05:13:22;100325.07;;;20.23;35.49
51999;BME280;73339;50.924;11.598;2023-11-18T05:15:52;100327.48;;;20.09;35.76
51999;BME280;73339;50.924;11.598;2023-11-18T05:18:23;100328.70;;;20.05;35.84
51999;BME280;73339;50.924;11.598;2023-11-18T05:20:53;100332.06;;;20.32;35.26
51999;BME280;73339;50.924;11.598;2023-11-18T05:23:24;100330.84;;;20.20;35.48
51999;BME280;73339;50.924;11.598;2023-11-18T05:25:54;100329.48;;;20.22;35.41
51999;BME280;73339;50.924;11.598;2023-11-18T05:28:25;100327.52;;;20.18;35.52
51999;BME280;73339;50.924;11.598;2023-11-18T05:30:55;100321.44;;;20.28;35.30
51999;BME280;73339;50.924;11.598;2023-11-18T05:33:26;100314.06;;;20.29;35.34
51999;BME280;73339;50.924;11.598;2023-11-18T05:35:56;100315.31;;;20.24;35.40
51999;BME280;73339;50.924;11.598;2023-11-18T05:38:27;100317.66;;;20.18;35.49
51999;BME280;73339;50.924;11.598;2023-11-18T05:40:57;100311.38;;;20.19;35.51
51999;BME280;73339;50.924;11.598;2023-11-18T05:43:29;100306.37;;;20.10;35.70
51999;BME280;73339;50.924;11.598;2023-11-18T05:45:58;100307.70;;;20.15;35.60
51999;BME280;73339;50.924;11.598;2023-11-18T05:48:28;100306.07;;;20.20;35.48
51999;BME280;73339;50.924;11.598;2023-11-18T05:50:59;100305.86;;;20.16;35.53
51999;BME280;73339;50.924;11.598;2023-11-18T05:53:30;100305.28;;;20.20;35.45
51999;BME280;73339;50.924;11.598;2023-11-18T05:56:00;100300.76;;;20.27;35.32
51999;BME280;73339;50.924;11.598;2023-11-18T05:58:30;100303.31;;;20.36;35.15
51999;BME280;73339;50.924;11.598;2023-11-18T06:01:01;100303.06;;;20.25;35.34
51999;BME280;73339;50.924;11.598;2023-11-18T06:03:31;100304.37;;;20.32;35.20
51999;BME280;73339;50.924;11.598;2023-11-18T06:06:02;100301.40;;;20.22;35.34
51999;BME280;73339;50.924;11.598;2023-11-18T06:08:33;100303.00;;;20.29;35.21
51999;BME280;73339;50.924;11.598;2023-11-18T06:11:03;100304.67;;;20.20;35.42
51999;BME280;73339;50.924;11.598;2023-11-18T06:13:33;100304.52;;;20.23;35.34
51999;BME280;73339;50.924;11.598;2023-11-18T06:16:04;100305.24;;;20.28;35.26
51999;BME280;73339;50.924;11.598;2023-11-18T06:18:34;100307.29;;;20.19;35.38
51999;BME280;73339;50.924;11.598;2023-11-18T06:21:06;100306.01;;;20.33;35.12
51999;BME280;73339;50.924;11.598;2023-11-18T06:23:35;100300.68;;;20.23;35.34
51999;BME280;73339;50.924;11.598;2023-11-18T06:26:05;100300.32;;;20.31;35.16
51999;BME280;73339;50.924;11.598;2023-11-18T06:28:38;100298.97;;;20.25;35.29
51999;BME280;73339;50.924;11.598;2023-11-18T06:31:07;100301.76;;;20.23;35.33
51999;BME280;73339;50.924;11.598;2023-11-18T06:33:38;100309.71;;;20.24;35.24
51999;BME280;73339;50.924;11.598;2023-11-18T06:36:08;100320.33;;;20.22;35.31
51999;BME280;73339;50.924;11.598;2023-11-18T06:38:38;100327.33;;;20.28;35.15
51999;BME280;73339;50.924;11.598;2023-11-18T06:41:08;100329.38;;;20.15;35.41
51999;BME280;73339;50.924;11.598;2023-11-18T06:43:40;100329.14;;;20.15;35.45
51999;BME280;73339;50.924;11.598;2023-11-18T06:46:09;100330.55;;;20.12;35.54
51999;BME280;73339;50.924;11.598;2023-11-18T06:48:40;100322.47;;;20.09;35.59
51999;BME280;73339;50.924;11.598;2023-11-18T06:51:10;100318.37;;;20.21;35.30
51999;BME280;73339;50.924;11.598;2023-11-18T06:53:40;100321.01;;;20.25;35.25
51999;BME280;73339;50.924;11.598;2023-11-18T06:56:11;100327.47;;;20.25;35.20
51999;BME280;73339;50.924;11.598;2023-11-18T06:58:41;100336.99;;;20.30;35.12
51999;BME280;73339;50.924;11.598;2023-11-18T07:01:13;100341.41;;;20.13;35.51
51999;BME280;73339;50.924;11.598;2023-11-18T07:03:42;100342.81;;;20.16;35.41
51999;BME280;73339;50.924;11.598;2023-11-18T07:06:16;100340.66;;;20.08;35.56
51999;BME280;73339;50.924;11.598;2023-11-18T07:08:43;100343.36;;;20.10;35.53
51999;BME280;73339;50.924;11.598;2023-11-18T07:11:13;100340.88;;;20.15;35.44
51999;BME280;73339;50.924;11.598;2023-11-18T07:13:44;100342.37;;;20.20;35.33
51999;BME280;73339;50.924;11.598;2023-11-18T07:16:15;100349.32;;;20.12;35.48
51999;BME280;73339;50.924;11.598;2023-11-18T07:18:45;100353.00;;;20.23;35.26
51999;BME280;73339;50.924;11.598;2023-11-18T07:21:15;100353.16;;;20.15;35.41
51999;BME280;73339;50.924;11.598;2023-11-18T07:23:46;100353.71;;;20.19;35.29
51999;BME280;73339;50.924;11.598;2023-11-18T07:26:16;100359.78;;;20.23;35.15
51999;BME280;73339;50.924;11.598;2023-11-18T07:28:46;100364.26;;;20.25;35.14
51999;BME280;73339;50.924;11.598;2023-11-18T07:31:17;100370.94;;;20.27;35.10
51999;BME280;73339;50.924;11.598;2023-11-18T07:33:48;100369.00;;;20.37;34.89
51999;BME280;73339;50.924;11.598;2023-11-18T07:36:18;100371.15;;;20.36;34.91
51999;BME280;73339;50.924;11.598;2023-11-18T07:38:48;100374.23;;;20.39;34.83
51999;BME280;73339;50.924;11.598;2023-11-18T07:41:19;100380.17;;;20.37;34.89
51999;BME280;73339;50.924;11.598;2023-11-18T07:43:49;100383.98;;;20.40;34.82
51999;BME280;73339;50.924;11.598;2023-11-18T07:46:20;100387.91;;;20.50;34.62
51999;BME280;73339;50.924;11.598;2023-11-18T07:48:51;100394.97;;;20.46;34.69
51999;BME280;73339;50.924;11.598;2023-11-18T07:51:21;100398.83;;;20.59;34.43
51999;BME280;73339;50.924;11.598;2023-11-18T07:53:51;100399.34;;;20.46;34.70
51999;BME280;73339;50.924;11.598;2023-11-18T07:56:21;100401.21;;;20.47;34.63
51999;BME280;73339;50.924;11.598;2023-11-18T07:58:52;100404.33;;;20.57;34.46
51999;BME280;73339;50.924;11.598;2023-11-18T08:01:22;100397.95;;;20.41;34.76
51999;BME280;73339;50.924;11.598;2023-11-18T08:03:53;100393.20;;;20.38;34.80
51999;BME280;73339;50.924;11.598;2023-11-18T08:06:23;100394.14;;;20.36;34.86
51999;BME280;73339;50.924;11.598;2023-11-18T08:08:54;100394.91;;;20.35;34.87
51999;BME280;73339;50.924;11.598;2023-11-18T08:11:24;100395.23;;;20.37;34.81
51999;BME280;73339;50.924;11.598;2023-11-18T08:13:55;100395.01;;;20.41;34.74
51999;BME280;73339;50.924;11.598;2023-11-18T08:16:25;100388.38;;;20.26;35.05
51999;BME280;73339;50.924;11.598;2023-11-18T08:18:56;100382.50;;;20.44;34.71
51999;BME280;73339;50.924;11.598;2023-11-18T08:21:26;100383.21;;;20.45;34.65
51999;BME280;73339;50.924;11.598;2023-11-18T08:23:57;100384.66;;;20.39;34.76
51999;BME280;73339;50.924;11.598;2023-11-18T08:26:27;100380.19;;;20.42;34.70
51999;BME280;73339;50.924;11.598;2023-11-18T08:28:57;100376.67;;;20.50;34.55
51999;BME280;73339;50.924;11.598;2023-11-18T08:31:28;100375.37;;;20.59;34.35
51999;BME280;73339;50.924;11.598;2023-11-18T08:33:58;100369.09;;;20.63;34.24
51999;BME280;73339;50.924;11.598;2023-11-18T08:36:29;100366.06;;;20.98;33.54
51999;BME280;73339;50.924;11.598;2023-11-18T08:38:59;100365.50;;;20.74;34.01
51999;BME280;73339;50.924;11.598;2023-11-18T08:41:30;100372.30;;;20.72;34.09
51999;BME280;73339;50.924;11.598;2023-11-18T08:44:00;100377.97;;;20.83;33.85
51999;BME280;73339;50.924;11.598;2023-11-18T08:46:31;100379.02;;;20.82;33.85
51999;BME280;73339;50.924;11.598;2023-11-18T08:49:01;100387.88;;;20.76;34.04
51999;BME280;73339;50.924;11.598;2023-11-18T08:51:32;100391.40;;;20.89;33.71
51999;BME280;73339;50.924;11.598;2023-11-18T08:54:02;100391.00;;;21.01;33.49
51999;BME280;73339;50.924;11.598;2023-11-18T08:56:33;100391.02;;;21.01;33.46
51999;BME280;73339;50.924;11.598;2023-11-18T08:59:03;100390.30;;;20.92;33.61
51999;BME280;73339;50.924;11.598;2023-11-18T09:01:33;100387.49;;;21.05;33.38
51999;BME280;73339;50.924;11.598;2023-11-18T09:04:04;100380.68;;;20.75;34.01
51999;BME280;73339;50.924;11.598;2023-11-18T09:06:34;100382.01;;;21.00;33.52
51999;BME280;73339;50.924;11.598;2023-11-18T09:09:05;100387.85;;;21.14;33.21
51999;BME280;73339;50.924;11.598;2023-11-18T09:11:35;100385.73;;;21.05;33.36
51999;BME280;73339;50.924;11.598;2023-11-18T09:14:06;100383.21;;;21.08;33.32
51999;BME280;73339;50.924;11.598;2023-11-18T09:16:36;100382.40;;;21.06;33.35
51999;BME280;73339;50.924;11.598;2023-11-18T09:19:07;100384.69;;;20.95;33.59
51999;BME280;73339;50.924;11.598;2023-11-18T09:21:37;100389.06;;;21.02;33.40
51999;BME280;73339;50.924;11.598;2023-11-18T09:24:08;100387.58;;;20.80;33.90
51999;BME280;73339;50.924;11.598;2023-11-18T09:26:38;100392.66;;;20.94;33.56
51999;BME280;73339;50.924;11.598;2023-11-18T09:29:09;100400.27;;;21.06;33.36
51999;BME280;73339;50.924;11.598;2023-11-18T09:31:39;100402.39;;;20.97;33.53
51999;BME280;73339;50.924;11.598;2023-11-18T09:34:09;100400.86;;;20.98;33.52
51999;BME280;73339;50.924;11.598;2023-11-18T09:36:40;100400.86;;;20.96;33.54
51999;BME280;73339;50.924;11.598;2023-11-18T09:39:10;100397.61;;;20.77;33.91
51999;BME280;73339;50.924;11.598;2023-11-18T09:41:41;100402.96;;;20.42;34.62
51999;BME280;73339;50.924;11.598;2023-11-18T09:44:11;100403.08;;;20.09;35.26
51999;BME280;73339;50.924;11.598;2023-11-18T09:46:45;100392.36;;;20.23;34.94
51999;BME280;73339;50.924;11.598;2023-11-18T09:49:17;100393.89;;;20.01;35.32
51999;BME280;73339;50.924;11.598;2023-11-18T09:51:44;100389.49;;;20.14;35.02
51999;BME280;73339;50.924;11.598;2023-11-18T09:54:19;100388.67;;;20.25;34.81
51999;BME280;73339;50.924;11.598;2023-11-18T09:56:52;100382.48;;;20.49;34.28
51999;BME280;73339;50.924;11.598;2023-11-18T09:59:18;100373.56;;;20.62;34.06
51999;BME280;73339;50.924;11.598;2023-11-18T10:01:50;100365.63;;;20.85;33.59
51999;BME280;73339;50.924;11.598;2023-11-18T10:04:15;100365.86;;;20.81;33.67
51999;BME280;73339;50.924;11.598;2023-11-18T10:06:46;100364.69;;;20.75;33.78
51999;BME280;73339;50.924;11.598;2023-11-18T10:09:16;100362.17;;;21.10;33.07
51999;BME280;73339;50.924;11.598;2023-11-18T10:11:47;100360.28;;;20.95;33.35
51999;BME280;73339;50.924;11.598;2023-11-18T10:14:17;100354.69;;;21.01;33.22
51999;BME280;73339;50.924;11.598;2023-11-18T10:16:47;100352.40;;;21.05;33.13
51999;BME280;73339;50.924;11.598;2023-11-18T10:19:18;100349.59;;;21.21;32.73
51999;BME280;73339;50.924;11.598;2023-11-18T10:21:48;100350.27;;;21.13;32.90
51999;BME280;73339;50.924;11.598;2023-11-18T10:24:19;100349.91;;;21.12;32.89
51999;BME280;73339;50.924;11.598;2023-11-18T10:26:54;100346.06;;;20.97;33.27
51999;BME280;73339;50.924;11.598;2023-11-18T10:29:19;100345.55;;;21.07;33.09
51999;BME280;73339;50.924;11.598;2023-11-18T10:31:50;100348.81;;;20.99;33.30
51999;BME280;73339;50.924;11.598;2023-11-18T10:34:21;100347.97;;;21.00;33.24
51999;BME280;73339;50.924;11.598;2023-11-18T10:36:58;100344.60;;;20.76;33.74
51999;BME280;73339;50.924;11.598;2023-11-18T10:39:22;100348.04;;;20.86;33.56
51999;BME280;73339;50.924;11.598;2023-11-18T10:41:52;100343.96;;;20.71;33.81
51999;BME280;73339;50.924;11.598;2023-11-18T10:44:22;100347.03;;;20.64;33.97
51999;BME280;73339;50.924;11.598;2023-11-18T10:46:53;100346.07;;;20.54;34.16
51999;BME280;73339;50.924;11.598;2023-11-18T10:49:24;100337.97;;;20.46;34.35
51999;BME280;73339;50.924;11.598;2023-11-18T10:51:55;100340.68;;;20.38;34.50
51999;BME280;73339;50.924;11.598;2023-11-18T10:54:24;100331.73;;;20.54;34.19
51999;BME280;73339;50.924;11.598;2023-11-18T10:56:55;100330.79;;;20.61;34.07
51999;BME280;73339;50.924;11.598;2023-11-18T10:59:25;100322.75;;;20.57;34.13
51999;BME280;73339;50.924;11.598;2023-11-18T11:01:56;100329.68;;;20.81;33.66
51999;BME280;73339;50.924;11.598;2023-11-18T11:04:26;100329.84;;;20.82;33.65
51999;BME280;73339;50.924;11.598;2023-11-18T11:06:57;100324.19;;;21.06;33.14
51999;BME280;73339;50.924;11.598;2023-11-18T11:09:27;100325.18;;;20.99;33.28
51999;BME280;73339;50.924;11.598;2023-11-18T11:11:59;100325.73;;;20.87;33.56
51999;BME280;73339;50.924;11.598;2023-11-18T11:14:33;100319.26;;;20.95;33.37
51999;BME280;73339;50.924;11.598;2023-11-18T11:17:00;100317.09;;;20.91;33.46
51999;BME280;73339;50.924;11.598;2023-11-18T11:19:34;100318.21;;;20.95;33.41
51999;BME280;73339;50.924;11.598;2023-11-18T11:22:05;100316.12;;;20.79;33.71
51999;BME280;73339;50.924;11.598;2023-11-18T11:24:40;100317.65;;;20.96;33.39
51999;BME280;73339;50.924;11.598;2023-11-18T11:27:07;100314.57;;;20.77;33.75
51999;BME280;73339;50.924;11.598;2023-11-18T11:29:36;100312.53;;;20.72;33.84
51999;BME280;73339;50.924;11.598;2023-11-18T11:32:11;100309.57;;;20.81;33.69
51999;BME280;73339;50.924;11.598;2023-11-18T11:34:32;100307.49;;;20.85;33.64
51999;BME280;73339;50.924;11.598;2023-11-18T11:37:02;100305.33;;;20.88;33.55
51999;BME280;73339;50.924;11.598;2023-11-18T11:39:35;100295.18;;;20.77;33.77
51999;BME280;73339;50.924;11.598;2023-11-18T11:42:04;100287.47;;;20.82;33.66
51999;BME280;73339;50.924;11.598;2023-11-18T11:44:34;100285.25;;;20.80;33.72
51999;BME280;73339;50.924;11.598;2023-11-18T11:47:04;100288.15;;;20.80;33.76
51999;BME280;73339;50.924;11.598;2023-11-18T11:49:39;100288.57;;;20.85;33.62
51999;BME280;73339;50.924;11.598;2023-11-18T11:52:10;100280.95;;;20.70;33.90
51999;BME280;73339;50.924;11.598;2023-11-18T11:54:42;100269.89;;;20.83;33.66
51999;BME280;73339;50.924;11.598;2023-11-18T11:57:06;100259.59;;;20.64;34.00
51999;BME280;73339;50.924;11.598;2023-11-18T12:02:10;100249.51;;;20.77;33.76
51999;BME280;73339;50.924;11.598;2023-11-18T12:04:37;100240.46;;;20.63;34.05
51999;BME280;73339;50.924;11.598;2023-11-18T12:07:08;100236.06;;;20.46;34.39
51999;BME280;73339;50.924;11.598;2023-11-18T12:09:38;100225.24;;;20.37;34.53
51999;BME280;73339;50.924;11.598;2023-11-18T12:12:17;100211.37;;;20.68;33.84
51999;BME280;73339;50.924;11.598;2023-11-18T12:17:09;100203.60;;;20.17;34.81
51999;BME280;73339;50.924;11.598;2023-11-18T12:19:41;100207.06;;;20.45;34.33
51999;BME280;73339;50.924;11.598;2023-11-18T12:22:11;100208.77;;;20.82;33.54
51999;BME280;73339;50.924;11.598;2023-11-18T12:24:41;100202.54;;;20.61;33.97
51999;BME280;73339;50.924;11.598;2023-11-18T12:27:11;100197.78;;;20.63;33.85
51999;BME280;73339;50.924;11.598;2023-11-18T12:29:42;100197.87;;;20.38;34.39
51999;BME280;73339;50.924;11.598;2023-11-18T12:34:51;100182.40;;;20.46;34.11
51999;BME280;73339;50.924;11.598;2023-11-18T12:42:23;100153.77;;;20.49;34.06
51999;BME280;73339;50.924;11.598;2023-11-18T12:45:01;100153.49;;;20.72;33.53
51999;BME280;73339;50.924;11.598;2023-11-18T12:47:16;100156.43;;;20.71;33.54
51999;BME280;73339;50.924;11.598;2023-11-18T12:49:46;100151.61;;;20.95;33.10
51999;BME280;73339;50.924;11.598;2023-11-18T12:52:16;100154.58;;;20.90;33.15
51999;BME280;73339;50.924;11.598;2023-11-18T12:54:47;100158.93;;;21.02;32.93
51999;BME280;73339;50.924;11.598;2023-11-18T12:57:19;100166.48;;;20.95;33.11
51999;BME280;73339;50.924;11.598;2023-11-18T12:59:47;100162.35;;;20.88;33.25
51999;BME280;73339;50.924;11.598;2023-11-18T13:02:18;100168.67;;;20.53;33.93
51999;BME280;73339;50.924;11.598;2023-11-18T13:04:49;100171.73;;;20.71;33.56
51999;BME280;73339;50.924;11.598;2023-11-18T13:07:19;100166.69;;;20.66;33.70
51999;BME280;73339;50.924;11.598;2023-11-18T13:09:50;100162.22;;;20.87;33.29